sensor_id;sensor_type;location;lat;lon;timestamp;temperature;humidity
53314;DHT22;39202;51.468;7.146;2022-11-23T00:02:43;22.80;42.90
53314;DHT22;39202;51.468;7.146;2022-11-23T00:07:46;22.70;42.80
53314;DHT22;39202;51.468;7.146;2022-11-23T00:12:47;22.70;42.80
53314;DHT22;39202;51.468;7.146;2022-11-23T00:17:49;22.70;42.90
53314;DHT22;39202;51.468;7.146;2022-11-23T00:22:52;22.70;42.90
53314;DHT22;39202;51.468;7.146;2022-11-23T00:27:54;22.70;42.90
53314;DHT22;39202;51.468;7.146;2022-11-23T00:32:55;22.70;42.90
53314;DHT22;39202;51.468;7.146;2022-11-23T00:37:58;22.60;52.80
53314;DHT22;39202;51.468;7.146;2022-11-23T00:43:00;22.60;42.90
53314;DHT22;39202;51.468;7.146;2022-11-23T00:48:02;22.60;42.90
53314;DHT22;39202;51.468;7.146;2022-11-23T00:53:05;22.60;42.80
53314;DHT22;39202;51.468;7.146;2022-11-23T00:58:07;22.60;42.90
53314;DHT22;39202;51.468;7.146;2022-11-23T01:03:09;22.60;42.90
53314;DHT22;39202;51.468;7.146;2022-11-23T01:08:12;22.60;43.00
53314;DHT22;39202;51.468;7.146;2022-11-23T01:13:13;22.50;42.90
53314;DHT22;39202;51.468;7.146;2022-11-23T01:18:15;22.50;42.90
53314;DHT22;39202;51.468;7.146;2022-11-23T01:23:18;22.50;42.90
53314;DHT22;39202;51.468;7.146;2022-11-23T01:28:20;22.50;42.90
53314;DHT22;39202;51.468;7.146;2022-11-23T01:33:21;22.50;42.90
53314;DHT22;39202;51.468;7.146;2022-11-23T01:38:24;22.50;42.90
53314;DHT22;39202;51.468;7.146;2022-11-23T01:43:26;22.50;42.90
53314;DHT22;39202;51.468;7.146;2022-11-23T01:48:31;22.50;43.00
53314;DHT22;39202;51.468;7.146;2022-11-23T01:53:36;22.50;43.00
53314;DHT22;39202;51.468;7.146;2022-11-23T01:58:41;22.40;42.90
53314;DHT22;39202;51.468;7.146;2022-11-23T02:03:46;22.40;42.90
53314;DHT22;39202;51.468;7.146;2022-11-23T02:08:50;22.40;42.90
53314;DHT22;39202;51.468;7.146;2022-11-23T02:13:53;22.40;43.00
53314;DHT22;39202;51.468;7.146;2022-11-23T02:18:56;22.40;43.00
53314;DHT22;39202;51.468;7.146;2022-11-23T02:24:04;22.40;43.60
53314;DHT22;39202;51.468;7.146;2022-11-23T02:29:13;22.40;43.00
53314;DHT22;39202;51.468;7.146;2022-11-23T02:34:16;22.40;43.00
53314;DHT22;39202;51.468;7.146;2022-11-23T02:39:22;22.40;42.90
53314;DHT22;39202;51.468;7.146;2022-11-23T02:44:36;22.40;42.90
53314;DHT22;39202;51.468;7.146;2022-11-23T02:49:41;22.30;42.90
53314;DHT22;39202;51.468;7.146;2022-11-23T02:54:42;22.30;42.90
53314;DHT22;39202;51.468;7.146;2022-11-23T02:59:45;22.30;42.90
53314;DHT22;39202;51.468;7.146;2022-11-23T03:04:47;22.30;42.90
53314;DHT22;39202;51.468;7.146;2022-11-23T03:09:49;22.30;43.00
53314;DHT22;39202;51.468;7.146;2022-11-23T03:14:52;22.30;43.00
53314;DHT22;39202;51.468;7.146;2022-11-23T03:19:54;22.30;43.00
53314;DHT22;39202;51.468;7.146;2022-11-23T03:24:55;22.30;43.00
53314;DHT22;39202;51.468;7.146;2022-11-23T03:29:59;22.30;43.00
53314;DHT22;39202;51.468;7.146;2022-11-23T03:35:01;22.30;43.00
53314;DHT22;39202;51.468;7.146;2022-11-23T03:40:04;22.30;43.00
53314;DHT22;39202;51.468;7.146;2022-11-23T03:45:08;22.30;43.00
53314;DHT22;39202;51.468;7.146;2022-11-23T03:50:11;22.30;43.00
53314;DHT22;39202;51.468;7.146;2022-11-23T03:55:13;22.30;42.90
53314;DHT22;39202;51.468;7.146;2022-11-23T04:00:17;22.30;42.90
53314;DHT22;39202;51.468;7.146;2022-11-23T04:05:18;22.30;42.90
53314;DHT22;39202;51.468;7.146;2022-11-23T04:10:20;22.20;43.00
53314;DHT22;39202;51.468;7.146;2022-11-23T04:15:23;22.20;43.00
53314;DHT22;39202;51.468;7.146;2022-11-23T04:20:25;22.20;43.10
53314;DHT22;39202;51.468;7.146;2022-11-23T04:25:27;22.20;43.00
53314;DHT22;39202;51.468;7.146;2022-11-23T04:30:30;22.20;43.00
53314;DHT22;39202;51.468;7.146;2022-11-23T04:35:32;22.20;43.00
53314;DHT22;39202;51.468;7.146;2022-11-23T04:40:34;22.20;43.00
53314;DHT22;39202;51.468;7.146;2022-11-23T04:45:38;22.20;43.00
53314;DHT22;39202;51.468;7.146;2022-11-23T04:50:40;22.20;43.00
53314;DHT22;39202;51.468;7.146;2022-11-23T04:55:42;22.20;43.00
53314;DHT22;39202;51.468;7.146;2022-11-23T05:00:45;22.20;43.00
53314;DHT22;39202;51.468;7.146;2022-11-23T05:05:46;22.20;43.00
53314;DHT22;39202;51.468;7.146;2022-11-23T05:10:48;22.10;43.00
53314;DHT22;39202;51.468;7.146;2022-11-23T05:15:51;22.20;43.00
53314;DHT22;39202;51.468;7.146;2022-11-23T05:20:53;22.10;43.00
53314;DHT22;39202;51.468;7.146;2022-11-23T05:25:54;22.10;43.00
53314;DHT22;39202;51.468;7.146;2022-11-23T05:30:57;22.10;43.00
53314;DHT22;39202;51.468;7.146;2022-11-23T05:35:59;22.10;43.00
53314;DHT22;39202;51.468;7.146;2022-11-23T05:41:01;22.10;43.00
53314;DHT22;39202;51.468;7.146;2022-11-23T05:46:04;22.10;43.00
53314;DHT22;39202;51.468;7.146;2022-11-23T05:51:06;22.10;43.00
53314;DHT22;39202;51.468;7.146;2022-11-23T05:56:07;22.20;43.00
53314;DHT22;39202;51.468;7.146;2022-11-23T06:01:10;22.20;43.10
53314;DHT22;39202;51.468;7.146;2022-11-23T06:06:12;22.20;43.20
53314;DHT22;39202;51.468;7.146;2022-11-23T06:11:14;22.20;43.30
53314;DHT22;39202;51.468;7.146;2022-11-23T06:16:17;22.20;43.30
53314;DHT22;39202;51.468;7.146;2022-11-23T06:21:19;22.30;43.40
53314;DHT22;39202;51.468;7.146;2022-11-23T06:26:21;22.30;43.40
53314;DHT22;39202;51.468;7.146;2022-11-23T06:31:24;22.40;43.40
53314;DHT22;39202;51.468;7.146;2022-11-23T06:36:25;22.50;43.30
53314;DHT22;39202;51.468;7.146;2022-11-23T06:41:27;22.50;43.20
53314;DHT22;39202;51.468;7.146;2022-11-23T06:46:30;22.60;43.30
53314;DHT22;39202;51.468;7.146;2022-11-23T06:51:32;22.50;43.10
53314;DHT22;39202;51.468;7.146;2022-11-23T06:56:34;22.60;43.10
53314;DHT22;39202;51.468;7.146;2022-11-23T07:01:37;22.60;43.00
53314;DHT22;39202;51.468;7.146;2022-11-23T07:06:39;22.60;43.00
53314;DHT22;39202;51.468;7.146;2022-11-23T07:11:41;22.60;43.00
53314;DHT22;39202;51.468;7.146;2022-11-23T07:16:44;22.60;43.10
53314;DHT22;39202;51.468;7.146;2022-11-23T07:21:46;22.60;43.30
53314;DHT22;39202;51.468;7.146;2022-11-23T07:26:49;22.70;43.30
53314;DHT22;39202;51.468;7.146;2022-11-23T07:31:52;22.80;43.20
53314;DHT22;39202;51.468;7.146;2022-11-23T07:36:54;22.80;43.00
53314;DHT22;39202;51.468;7.146;2022-11-23T07:41:56;22.90;43.00
53314;DHT22;39202;51.468;7.146;2022-11-23T07:46:59;23.00;43.10
53314;DHT22;39202;51.468;7.146;2022-11-23T07:52:01;23.10;43.20
53314;DHT22;39202;51.468;7.146;2022-11-23T07:57:03;23.10;43.40
53314;DHT22;39202;51.468;7.146;2022-11-23T08:02:07;23.30;43.50
53314;DHT22;39202;51.468;7.146;2022-11-23T08:07:10;23.40;43.40
53314;DHT22;39202;51.468;7.146;2022-11-23T08:12:12;23.50;43.40
53314;DHT22;39202;51.468;7.146;2022-11-23T08:17:15;23.50;43.40
53314;DHT22;39202;51.468;7.146;2022-11-23T08:22:17;23.60;43.40
53314;DHT22;39202;51.468;7.146;2022-11-23T08:27:18;23.80;43.50
53314;DHT22;39202;51.468;7.146;2022-11-23T08:32:21;23.80;43.40
53314;DHT22;39202;51.468;7.146;2022-11-23T08:37:23;23.90;43.40
53314;DHT22;39202;51.468;7.146;2022-11-23T08:42:25;24.00;43.40
53314;DHT22;39202;51.468;7.146;2022-11-23T08:47:29;24.00;43.30
53314;DHT22;39202;51.468;7.146;2022-11-23T08:52:31;24.10;43.30
53314;DHT22;39202;51.468;7.146;2022-11-23T08:57:33;24.10;43.20
53314;DHT22;39202;51.468;7.146;2022-11-23T09:02:36;24.20;43.30
53314;DHT22;39202;51.468;7.146;2022-11-23T09:07:38;24.30;43.20
53314;DHT22;39202;51.468;7.146;2022-11-23T09:12:40;24.30;43.20
53314;DHT22;39202;51.468;7.146;2022-11-23T09:17:43;24.40;43.20
53314;DHT22;39202;51.468;7.146;2022-11-23T09:22:49;24.40;43.20
53314;DHT22;39202;51.468;7.146;2022-11-23T09:27:56;24.50;43.20
53314;DHT22;39202;51.468;7.146;2022-11-23T09:38:02;24.50;42.70
53314;DHT22;39202;51.468;7.146;2022-11-23T09:43:26;24.60;43.10
53314;DHT22;39202;51.468;7.146;2022-11-23T09:48:44;24.70;43.00
53314;DHT22;39202;51.468;7.146;2022-11-23T09:53:51;24.80;43.00
53314;DHT22;39202;51.468;7.146;2022-11-23T09:58:56;24.80;42.90
53314;DHT22;39202;51.468;7.146;2022-11-23T10:03:59;24.80;42.90
53314;DHT22;39202;51.468;7.146;2022-11-23T10:09:17;24.90;42.90
53314;DHT22;39202;51.468;7.146;2022-11-23T10:14:38;24.90;42.90
53314;DHT22;39202;51.468;7.146;2022-11-23T10:20:00;24.90;42.90
53314;DHT22;39202;51.468;7.146;2022-11-23T10:25:14;25.00;42.90
53314;DHT22;39202;51.468;7.146;2022-11-23T10:30:17;25.00;42.90
53314;DHT22;39202;51.468;7.146;2022-11-23T10:35:27;25.10;43.00
53314;DHT22;39202;51.468;7.146;2022-11-23T10:40:29;25.10;42.90
53314;DHT22;39202;51.468;7.146;2022-11-23T10:45:31;25.10;42.90
53314;DHT22;39202;51.468;7.146;2022-11-23T10:50:36;25.20;42.90
53314;DHT22;39202;51.468;7.146;2022-11-23T10:55:46;25.20;43.00
53314;DHT22;39202;51.468;7.146;2022-11-23T11:00:58;25.30;43.00
53314;DHT22;39202;51.468;7.146;2022-11-23T11:06:01;25.30;43.00
53314;DHT22;39202;51.468;7.146;2022-11-23T11:11:05;25.30;42.90
53314;DHT22;39202;51.468;7.146;2022-11-23T11:16:19;25.40;42.90
53314;DHT22;39202;51.468;7.146;2022-11-23T11:21:25;25.40;42.90
53314;DHT22;39202;51.468;7.146;2022-11-23T11:26:31;25.40;42.90
53314;DHT22;39202;51.468;7.146;2022-11-23T11:31:45;25.40;42.90
53314;DHT22;39202;51.468;7.146;2022-11-23T11:36:59;25.50;42.90
53314;DHT22;39202;51.468;7.146;2022-11-23T11:42:05;25.50;42.80
53314;DHT22;39202;51.468;7.146;2022-11-23T11:47:15;25.50;42.70
53314;DHT22;39202;51.468;7.146;2022-11-23T11:52:24;25.50;42.70
53314;DHT22;39202;51.468;7.146;2022-11-23T11:57:30;25.50;42.60
53314;DHT22;39202;51.468;7.146;2022-11-23T12:02:36;25.50;42.60
53314;DHT22;39202;51.468;7.146;2022-11-23T12:07:45;25.50;42.50
53314;DHT22;39202;51.468;7.146;2022-11-23T12:12:51;25.50;42.50
53314;DHT22;39202;51.468;7.146;2022-11-23T12:23:45;25.50;42.40
53314;DHT22;39202;51.468;7.146;2022-11-23T12:29:07;25.40;42.30
53314;DHT22;39202;51.468;7.146;2022-11-23T12:34:28;25.40;42.20
53314;DHT22;39202;51.468;7.146;2022-11-23T12:39:53;25.30;42.20
53314;DHT22;39202;51.468;7.146;2022-11-23T12:45:15;25.30;42.20
53314;DHT22;39202;51.468;7.146;2022-11-23T12:50:22;25.30;42.20
53314;DHT22;39202;51.468;7.146;2022-11-23T12:55:36;25.20;42.10
53314;DHT22;39202;51.468;7.146;2022-11-23T13:00:44;25.20;42.10
53314;DHT22;39202;51.468;7.146;2022-11-23T13:06:06;25.10;42.10
53314;DHT22;39202;51.468;7.146;2022-11-23T13:11:25;25.10;42.10
53314;DHT22;39202;51.468;7.146;2022-11-23T13:16:53;25.10;42.20
53314;DHT22;39202;51.468;7.146;2022-11-23T13:21:57;25.00;42.10
53314;DHT22;39202;51.468;7.146;2022-11-23T13:27:29;25.00;42.20
53314;DHT22;39202;51.468;7.146;2022-11-23T13:32:45;25.00;42.30
53314;DHT22;39202;51.468;7.146;2022-11-23T13:43:35;25.00;42.30
53314;DHT22;39202;51.468;7.146;2022-11-23T13:48:42;25.00;42.40
53314;DHT22;39202;51.468;7.146;2022-11-23T13:53:51;25.00;42.50
53314;DHT22;39202;51.468;7.146;2022-11-23T13:58:55;24.90;42.50
53314;DHT22;39202;51.468;7.146;2022-11-23T14:04:18;24.90;42.60
53314;DHT22;39202;51.468;7.146;2022-11-23T14:09:24;24.90;42.80
53314;DHT22;39202;51.468;7.146;2022-11-23T14:14:34;24.80;42.60
53314;DHT22;39202;51.468;7.146;2022-11-23T14:20:00;24.80;42.70
53314;DHT22;39202;51.468;7.146;2022-11-23T14:25:28;24.80;42.80
53314;DHT22;39202;51.468;7.146;2022-11-23T14:30:44;24.80;42.80
53314;DHT22;39202;51.468;7.146;2022-11-23T14:35:56;24.80;42.90
53314;DHT22;39202;51.468;7.146;2022-11-23T14:41:05;24.70;42.90
53314;DHT22;39202;51.468;7.146;2022-11-23T14:46:13;24.70;42.90
53314;DHT22;39202;51.468;7.146;2022-11-23T14:51:17;24.70;43.10
53314;DHT22;39202;51.468;7.146;2022-11-23T14:56:24;24.60;43.00
53314;DHT22;39202;51.468;7.146;2022-11-23T15:01:29;24.60;43.10
53314;DHT22;39202;51.468;7.146;2022-11-23T15:06:34;24.60;43.10
53314;DHT22;39202;51.468;7.146;2022-11-23T15:11:37;24.60;43.20
53314;DHT22;39202;51.468;7.146;2022-11-23T15:16:40;24.60;43.20
53314;DHT22;39202;51.468;7.146;2022-11-23T15:21:43;24.60;43.30
53314;DHT22;39202;51.468;7.146;2022-11-23T15:26:45;24.50;43.20
53314;DHT22;39202;51.468;7.146;2022-11-23T15:31:48;24.50;43.00
53314;DHT22;39202;51.468;7.146;2022-11-23T15:36:50;24.50;42.90
53314;DHT22;39202;51.468;7.146;2022-11-23T15:41:52;24.50;43.00
53314;DHT22;39202;51.468;7.146;2022-11-23T15:46:59;24.50;43.00
53314;DHT22;39202;51.468;7.146;2022-11-23T15:52:02;24.50;43.20
53314;DHT22;39202;51.468;7.146;2022-11-23T15:57:06;24.40;43.20
53314;DHT22;39202;51.468;7.146;2022-11-23T16:02:15;24.40;43.30
53314;DHT22;39202;51.468;7.146;2022-11-23T16:07:19;24.40;43.40
53314;DHT22;39202;51.468;7.146;2022-11-23T16:12:24;24.40;43.50
53314;DHT22;39202;51.468;7.146;2022-11-23T16:17:28;24.40;43.60
53314;DHT22;39202;51.468;7.146;2022-11-23T16:22:31;24.40;43.50
53314;DHT22;39202;51.468;7.146;2022-11-23T16:27:35;24.50;43.60
53314;DHT22;39202;51.468;7.146;2022-11-23T16:32:38;24.50;43.60
53314;DHT22;39202;51.468;7.146;2022-11-23T16:37:40;24.50;43.60
53314;DHT22;39202;51.468;7.146;2022-11-23T16:42:42;24.50;43.60
53314;DHT22;39202;51.468;7.146;2022-11-23T16:47:51;24.50;43.60
53314;DHT22;39202;51.468;7.146;2022-11-23T16:52:54;24.50;43.80
53314;DHT22;39202;51.468;7.146;2022-11-23T16:57:55;24.50;43.70
53314;DHT22;39202;51.468;7.146;2022-11-23T17:02:58;24.40;43.60
53314;DHT22;39202;51.468;7.146;2022-11-23T17:08:00;24.40;43.70
53314;DHT22;39202;51.468;7.146;2022-11-23T17:13:02;24.40;43.70
53314;DHT22;39202;51.468;7.146;2022-11-23T17:18:08;24.40;43.70
53314;DHT22;39202;51.468;7.146;2022-11-23T17:23:13;24.40;43.80
53314;DHT22;39202;51.468;7.146;2022-11-23T17:28:17;24.40;43.80
53314;DHT22;39202;51.468;7.146;2022-11-23T17:33:22;24.40;43.90
53314;DHT22;39202;51.468;7.146;2022-11-23T17:38:25;24.40;43.90
53314;DHT22;39202;51.468;7.146;2022-11-23T17:43:26;24.30;43.90
53314;DHT22;39202;51.468;7.146;2022-11-23T17:48:29;24.30;43.90
53314;DHT22;39202;51.468;7.146;2022-11-23T17:53:33;24.30;43.90
53314;DHT22;39202;51.468;7.146;2022-11-23T17:58:35;24.30;43.90
53314;DHT22;39202;51.468;7.146;2022-11-23T18:03:38;24.30;43.90
53314;DHT22;39202;51.468;7.146;2022-11-23T18:08:40;24.30;44.00
53314;DHT22;39202;51.468;7.146;2022-11-23T18:13:43;24.30;44.00
53314;DHT22;39202;51.468;7.146;2022-11-23T18:18:48;24.30;44.00
53314;DHT22;39202;51.468;7.146;2022-11-23T18:23:50;22.60;43.20
53314;DHT22;39202;51.468;7.146;2022-11-23T18:28:52;24.30;44.10
53314;DHT22;39202;51.468;7.146;2022-11-23T18:33:55;24.30;44.10
53314;DHT22;39202;51.468;7.146;2022-11-23T18:38:57;24.20;44.10
53314;DHT22;39202;51.468;7.146;2022-11-23T18:44:01;24.20;44.20
53314;DHT22;39202;51.468;7.146;2022-11-23T18:49:04;24.20;44.20
53314;DHT22;39202;51.468;7.146;2022-11-23T18:54:05;24.20;44.20
53314;DHT22;39202;51.468;7.146;2022-11-23T18:59:07;24.20;44.20
53314;DHT22;39202;51.468;7.146;2022-11-23T19:04:11;24.20;44.20
53314;DHT22;39202;51.468;7.146;2022-11-23T19:09:13;24.20;44.20
53314;DHT22;39202;51.468;7.146;2022-11-23T19:14:14;24.20;44.10
53314;DHT22;39202;51.468;7.146;2022-11-23T19:19:17;24.20;44.10
53314;DHT22;39202;51.468;7.146;2022-11-23T19:24:19;24.10;44.00
53314;DHT22;39202;51.468;7.146;2022-11-23T19:29:21;24.10;44.00
53314;DHT22;39202;51.468;7.146;2022-11-23T19:34:25;24.10;44.00
53314;DHT22;39202;51.468;7.146;2022-11-23T19:39:27;24.10;44.00
53314;DHT22;39202;51.468;7.146;2022-11-23T19:44:29;24.00;44.00
53314;DHT22;39202;51.468;7.146;2022-11-23T19:49:32;24.00;44.00
53314;DHT22;39202;51.468;7.146;2022-11-23T19:54:33;23.90;43.90
53314;DHT22;39202;51.468;7.146;2022-11-23T19:59:35;23.90;43.90
53314;DHT22;39202;51.468;7.146;2022-11-23T20:04:38;23.90;44.00
53314;DHT22;39202;51.468;7.146;2022-11-23T20:09:40;23.80;43.90
53314;DHT22;39202;51.468;7.146;2022-11-23T20:14:41;23.80;43.90
53314;DHT22;39202;51.468;7.146;2022-11-23T20:19:45;23.80;43.90
53314;DHT22;39202;51.468;7.146;2022-11-23T20:24:46;23.80;44.00
53314;DHT22;39202;51.468;7.146;2022-11-23T20:29:48;23.70;43.90
53314;DHT22;39202;51.468;7.146;2022-11-23T20:34:51;23.70;43.90
53314;DHT22;39202;51.468;7.146;2022-11-23T20:39:53;23.70;44.00
53314;DHT22;39202;51.468;7.146;2022-11-23T20:44:54;23.70;44.00
53314;DHT22;39202;51.468;7.146;2022-11-23T20:49:57;23.70;43.90
53314;DHT22;39202;51.468;7.146;2022-11-23T20:54:59;23.60;43.90
53314;DHT22;39202;51.468;7.146;2022-11-23T21:00:01;23.60;43.90
53314;DHT22;39202;51.468;7.146;2022-11-23T21:05:04;23.50;43.90
53314;DHT22;39202;51.468;7.146;2022-11-23T21:10:07;23.50;43.80
53314;DHT22;39202;51.468;7.146;2022-11-23T21:15:08;23.50;43.90
53314;DHT22;39202;51.468;7.146;2022-11-23T21:20:12;23.50;43.90
53314;DHT22;39202;51.468;7.146;2022-11-23T21:25:14;23.40;43.90
53314;DHT22;39202;51.468;7.146;2022-11-23T21:30:16;23.40;43.90
53314;DHT22;39202;51.468;7.146;2022-11-23T21:35:19;23.40;44.00
53314;DHT22;39202;51.468;7.146;2022-11-23T21:40:21;23.30;43.90
53314;DHT22;39202;51.468;7.146;2022-11-23T21:45:22;23.30;43.90
53314;DHT22;39202;51.468;7.146;2022-11-23T21:50:25;23.10;43.80
53314;DHT22;39202;51.468;7.146;2022-11-23T21:55:27;23.30;43.90
53314;DHT22;39202;51.468;7.146;2022-11-23T22:00:29;23.30;44.00
53314;DHT22;39202;51.468;7.146;2022-11-23T22:05:32;23.20;44.00
53314;DHT22;39202;51.468;7.146;2022-11-23T22:10:34;23.20;44.00
53314;DHT22;39202;51.468;7.146;2022-11-23T22:15:35;23.20;44.00
53314;DHT22;39202;51.468;7.146;2022-11-23T22:20:39;23.20;44.00
53314;DHT22;39202;51.468;7.146;2022-11-23T22:25:41;23.10;44.00
53314;DHT22;39202;51.468;7.146;2022-11-23T22:30:51;23.10;48.40
53314;DHT22;39202;51.468;7.146;2022-11-23T22:35:58;23.10;44.00
53314;DHT22;39202;51.468;7.146;2022-11-23T22:41:01;23.10;44.00
53314;DHT22;39202;51.468;7.146;2022-11-23T22:46:04;23.10;44.00
53314;DHT22;39202;51.468;7.146;2022-11-23T22:56:12;23.00;86.50
53314;DHT22;39202;51.468;7.146;2022-11-23T23:01:15;23.00;44.00
53314;DHT22;39202;51.468;7.146;2022-11-23T23:06:20;23.00;44.00
53314;DHT22;39202;51.468;7.146;2022-11-23T23:11:23;23.00;44.00
53314;DHT22;39202;51.468;7.146;2022-11-23T23:16:25;23.00;44.60
53314;DHT22;39202;51.468;7.146;2022-11-23T23:21:29;23.00;44.00
53314;DHT22;39202;51.468;7.146;2022-11-23T23:26:31;22.90;43.90
53314;DHT22;39202;51.468;7.146;2022-11-23T23:31:35;22.90;44.00
53314;DHT22;39202;51.468;7.146;2022-11-23T23:36:38;22.90;44.00
53314;DHT22;39202;51.468;7.146;2022-11-23T23:41:40;22.90;44.00
53314;DHT22;39202;51.468;7.146;2022-11-23T23:46:42;22.90;44.00
53314;DHT22;39202;51.468;7.146;2022-11-23T23:51:45;22.90;44.00
53314;DHT22;39202;51.468;7.146;2022-11-23T23:56:47;22.80;43.90
